Time;durP1;ratioP1;P1;durP2;ratioP2;P2;SDS_P1;SDS_P2;PMS_P1;PMS_P2;Temp;Humidity;BMP_temperature;BMP_pressure;BME280_temperature;BME280_humidity;BME280_pressure;Samples;Min_cycle;Max_cycle;Signal;HPM_P1;HPM_P2
2023/11/07 00:01:43;;;;;;;4.93;2.10;;;9.20;99.90;;;;;;5040176;28;20028;-44
2023/11/07 00:04:09;;;;;;;4.63;1.88;;;9.20;99.90;;;;;;5039067;28;20392;-45
2023/11/07 00:06:35;;;;;;;3.58;1.83;;;9.20;99.90;;;;;;5039757;28;20135;-45
2023/11/07 00:09:01;;;;;;;7.07;2.60;;;9.30;99.90;;;;;;5039705;28;20107;-45
2023/11/07 00:11:26;;;;;;;5.50;2.33;;;9.20;99.90;;;;;;5039282;28;20621;-45
2023/11/07 00:13:52;;;;;;;2.75;1.65;;;9.20;99.90;;;;;;5039845;28;20041;-45
2023/11/07 00:16:18;;;;;;;2.60;1.52;;;9.20;99.90;;;;;;5040125;28;20608;-46
2023/11/07 00:18:44;;;;;;;3.80;1.92;;;9.20;99.90;;;;;;5043414;28;20033;-46
2023/11/07 00:21:10;;;;;;;6.07;2.30;;;9.20;99.90;;;;;;5042725;28;20484;-45
2023/11/07 00:23:36;;;;;;;2.90;1.95;;;9.20;99.90;;;;;;5043829;28;20032;-45
2023/11/07 00:26:02;;;;;;;5.63;2.40;;;9.20;99.90;;;;;;5042596;28;20032;-45
2023/11/07 00:28:27;;;;;;;3.88;2.00;;;9.20;99.90;;;;;;5043155;28;20029;-45
2023/11/07 00:30:53;;;;;;;3.85;2.00;;;9.20;99.90;;;;;;5043504;28;20025;-45
2023/11/07 00:33:19;;;;;;;3.38;2.00;;;9.20;99.90;;;;;;5041630;28;20078;-46
2023/11/07 00:35:44;;;;;;;3.35;2.10;;;9.20;99.90;;;;;;5042694;28;20099;-44
2023/11/07 00:38:13;;;;;;;2.67;1.60;;;9.20;99.90;;;;;;5042158;28;20041;-45
2023/11/07 00:40:39;;;;;;;2.50;1.80;;;9.20;99.90;;;;;;5042446;28;20032;-45
2023/11/07 00:43:04;;;;;;;3.78;1.90;;;9.30;99.90;;;;;;5043211;28;20381;-45
2023/11/07 00:45:30;;;;;;;2.55;1.50;;;9.30;99.90;;;;;;5042266;28;20558;-45
2023/11/07 00:47:56;;;;;;;5.18;2.35;;;9.30;99.90;;;;;;5042956;28;20056;-45
2023/11/07 00:50:22;;;;;;;4.80;2.75;;;9.30;99.90;;;;;;5042536;28;20044;-45
2023/11/07 00:52:49;;;;;;;3.40;2.30;;;9.30;99.90;;;;;;5042286;28;20024;-44
2023/11/07 00:55:17;;;;;;;3.05;1.95;;;9.30;99.90;;;;;;5041801;28;20098;-44
2023/11/07 00:57:43;;;;;;;4.93;2.33;;;9.30;99.90;;;;;;5040490;28;20017;-44
2023/11/07 01:00:09;;;;;;;3.95;2.28;;;9.30;99.90;;;;;;5042477;28;20033;-46
2023/11/07 01:02:35;;;;;;;3.85;1.85;;;9.30;99.90;;;;;;5042152;28;20810;-45
2023/11/07 01:05:02;;;;;;;4.47;2.50;;;9.30;99.90;;;;;;5042434;28;20037;-44
2023/11/07 01:07:27;;;;;;;4.75;2.33;;;9.30;99.90;;;;;;5041478;28;20031;-44
2023/11/07 01:09:53;;;;;;;2.67;1.58;;;9.20;99.90;;;;;;5042951;28;20021;-45
2023/11/07 01:12:18;;;;;;;3.40;1.90;;;9.20;99.90;;;;;;5042189;28;20023;-44
2023/11/07 01:14:44;;;;;;;4.00;1.98;;;9.30;99.90;;;;;;5042247;28;20501;-44
2023/11/07 01:17:10;;;;;;;4.97;2.10;;;9.30;99.90;;;;;;5041842;28;20060;-45
2023/11/07 01:19:35;;;;;;;2.90;1.95;;;9.30;99.90;;;;;;5042256;28;20496;-45
2023/11/07 01:22:01;;;;;;;2.45;1.80;;;9.40;99.90;;;;;;5041961;28;20017;-45
2023/11/07 01:24:26;;;;;;;4.78;2.22;;;9.30;99.90;;;;;;5042259;28;20696;-45
2023/11/07 01:26:52;;;;;;;5.15;2.30;;;9.30;99.90;;;;;;5042541;28;20362;-45
2023/11/07 01:29:18;;;;;;;3.10;2.03;;;9.30;99.90;;;;;;5040611;28;20890;-45
2023/11/07 01:31:48;;;;;;;4.88;1.90;;;9.30;99.90;;;;;;5042091;28;20533;-45
2023/11/07 01:34:14;;;;;;;4.20;2.30;;;9.30;99.90;;;;;;5041345;28;20090;-46
2023/11/07 01:36:39;;;;;;;4.18;2.00;;;9.20;99.90;;;;;;5040909;28;20053;-44
2023/11/07 01:39:05;;;;;;;3.20;1.73;;;9.30;99.90;;;;;;5041481;28;20028;-44
2023/11/07 01:41:31;;;;;;;4.18;1.88;;;9.20;99.90;;;;;;5041772;28;20476;-45
2023/11/07 01:43:57;;;;;;;6.22;2.08;;;9.20;99.90;;;;;;5041681;28;20044;-45
2023/11/07 01:46:23;;;;;;;3.15;2.00;;;9.20;99.90;;;;;;5042247;28;20037;-44
2023/11/07 01:48:48;;;;;;;3.78;2.08;;;9.20;99.90;;;;;;5041471;28;20389;-45
2023/11/07 01:51:14;;;;;;;3.22;1.50;;;9.20;99.90;;;;;;5042135;28;20028;-44
2023/11/07 01:53:41;;;;;;;4.75;1.98;;;9.20;99.90;;;;;;5042410;28;20086;-44
2023/11/07 01:56:09;;;;;;;4.63;1.67;;;9.10;99.90;;;;;;5041067;28;20052;-44
2023/11/07 01:58:35;;;;;;;3.05;1.70;;;9.20;99.90;;;;;;5041295;28;20581;-44
2023/11/07 02:01:02;;;;;;;5.78;2.13;;;9.20;99.90;;;;;;5041639;28;20033;-44
2023/11/07 02:03:28;;;;;;;2.38;1.58;;;9.20;99.90;;;;;;5040890;28;20101;-45
2023/11/07 02:05:53;;;;;;;4.22;1.70;;;9.20;99.90;;;;;;5041516;28;20016;-44
2023/11/07 02:08:23;;;;;;;3.55;1.70;;;9.20;99.90;;;;;;5041291;28;20017;-45
2023/11/07 02:10:49;;;;;;;5.30;1.95;;;9.20;99.90;;;;;;5041195;28;20392;-45
2023/11/07 02:13:15;;;;;;;3.20;1.80;;;9.20;99.90;;;;;;5041198;28;20595;-45
2023/11/07 02:15:41;;;;;;;4.95;2.30;;;9.20;99.90;;;;;;5041586;28;20037;-45
2023/11/07 02:18:06;;;;;;;2.45;1.60;;;9.20;99.90;;;;;;5040441;28;20483;-45
2023/11/07 02:20:39;;;;;;;4.65;2.08;;;9.20;99.90;;;;;;5041649;28;20099;-45
2023/11/07 02:23:11;;;;;;;2.65;1.58;;;9.20;99.90;;;;;;5041589;28;20013;-45
2023/11/07 02:25:40;;;;;;;4.88;1.85;;;9.20;99.90;;;;;;5041075;28;20017;-46
2023/11/07 02:28:06;;;;;;;4.32;2.58;;;9.20;99.90;;;;;;5041379;28;20036;-45
2023/11/07 02:30:32;;;;;;;3.63;2.17;;;9.20;99.90;;;;;;5040555;28;20066;-45
2023/11/07 02:33:04;;;;;;;3.15;1.88;;;9.20;99.90;;;;;;5040673;28;20831;-45
2023/11/07 02:35:31;;;;;;;2.83;1.50;;;9.20;99.90;;;;;;5040724;28;20131;-45
2023/11/07 02:37:56;;;;;;;2.80;1.40;;;9.20;99.90;;;;;;5040974;28;20702;-46
2023/11/07 02:40:22;;;;;;;2.67;1.50;;;9.20;99.90;;;;;;5040232;28;20043;-45
2023/11/07 02:42:48;;;;;;;3.38;1.25;;;9.20;99.90;;;;;;5040562;28;20030;-44
2023/11/07 02:45:13;;;;;;;3.13;1.50;;;9.20;99.90;;;;;;5040016;28;20080;-45
2023/11/07 02:47:39;;;;;;;3.53;1.42;;;9.20;99.90;;;;;;5041187;28;20104;-45
2023/11/07 02:50:05;;;;;;;2.58;1.40;;;9.30;99.90;;;;;;5041216;28;20025;-45
2023/11/07 02:52:31;;;;;;;3.72;1.55;;;9.30;99.90;;;;;;5040462;28;20077;-45
2023/11/07 02:54:56;;;;;;;3.00;1.40;;;9.20;99.90;;;;;;5040256;28;20037;-45
2023/11/07 02:57:22;;;;;;;2.65;1.33;;;9.30;99.90;;;;;;5041225;28;20024;-45
2023/11/07 02:59:48;;;;;;;3.67;1.60;;;9.20;99.90;;;;;;5041132;28;20049;-45
2023/11/07 03:02:15;;;;;;;3.97;1.70;;;9.20;99.90;;;;;;5040056;28;20471;-45
2023/11/07 03:04:42;;;;;;;2.35;1.45;;;9.20;99.90;;;;;;5040885;28;20508;-45
2023/11/07 03:07:07;;;;;;;4.03;1.60;;;9.20;99.90;;;;;;5039940;28;20120;-44
2023/11/07 03:09:33;;;;;;;4.47;1.95;;;9.20;99.90;;;;;;5040538;28;20132;-45
2023/11/07 03:11:59;;;;;;;2.67;1.70;;;9.20;99.90;;;;;;5040093;28;20048;-44
2023/11/07 03:14:24;;;;;;;2.40;1.38;;;9.20;99.90;;;;;;5040313;28;20120;-44
2023/11/07 03:16:51;;;;;;;2.55;1.30;;;9.10;99.90;;;;;;5040913;28;20380;-45
2023/11/07 03:19:16;;;;;;;3.50;1.70;;;9.10;99.90;;;;;;5040237;28;20032;-45
2023/11/07 03:21:42;;;;;;;3.17;1.75;;;9.10;99.90;;;;;;5040214;28;20025;-45
2023/11/07 03:24:08;;;;;;;2.72;1.45;;;9.10;99.90;;;;;;5040360;28;20238;-45
2023/11/07 03:26:34;;;;;;;3.80;1.92;;;9.00;99.90;;;;;;5039806;28;20029;-45
2023/11/07 03:29:00;;;;;;;3.42;1.65;;;9.00;99.90;;;;;;5040149;28;20094;-45
2023/11/07 03:31:29;;;;;;;3.33;1.60;;;9.00;99.90;;;;;;5040155;28;20028;-45
2023/11/07 03:33:54;;;;;;;3.20;1.60;;;9.00;99.90;;;;;;5040548;28;20040;-46
2023/11/07 03:36:20;;;;;;;3.47;1.55;;;9.00;99.90;;;;;;5039499;28;20045;-45
2023/11/07 03:38:45;;;;;;;3.03;1.38;;;9.00;99.90;;;;;;5040604;28;20465;-45
2023/11/07 03:41:11;;;;;;;1.70;1.20;;;9.00;99.90;;;;;;5040060;28;20681;-45
2023/11/07 03:43:37;;;;;;;1.95;0.90;;;9.00;99.90;;;;;;5040312;28;20060;-46
2023/11/07 03:46:05;;;;;;;2.33;1.20;;;9.10;99.90;;;;;;5040632;28;20133;-45
2023/11/07 03:48:40;;;;;;;3.85;1.50;;;9.10;99.90;;;;;;5039890;28;20029;-45
2023/11/07 03:51:06;;;;;;;3.08;1.38;;;9.10;99.90;;;;;;5040269;28;20937;-45
2023/11/07 03:53:31;;;;;;;3.72;1.80;;;9.20;99.90;;;;;;5043816;28;20020;-43
2023/11/07 03:55:58;;;;;;;3.35;1.55;;;9.20;99.90;;;;;;5043575;28;20032;-44
2023/11/07 03:58:24;;;;;;;2.83;1.58;;;9.30;99.90;;;;;;5043810;28;20033;-45
2023/11/07 04:00:49;;;;;;;3.08;1.30;;;9.30;99.90;;;;;;5044087;28;20048;-45
2023/11/07 04:03:15;;;;;;;3.67;1.67;;;9.40;99.90;;;;;;5042463;28;20464;-45
2023/11/07 04:05:41;;;;;;;2.28;1.50;;;9.30;99.90;;;;;;5044361;28;20033;-44
2023/11/07 04:08:06;;;;;;;3.90;1.88;;;9.40;99.90;;;;;;5043312;28;20086;-44
2023/11/07 04:10:32;;;;;;;3.22;1.38;;;9.40;99.90;;;;;;5042651;28;20841;-46
2023/11/07 04:12:58;;;;;;;3.55;1.63;;;9.40;99.90;;;;;;5043726;28;20028;-46
2023/11/07 04:15:23;;;;;;;3.40;1.60;;;9.40;99.90;;;;;;5043049;28;20471;-45
2023/11/07 04:17:50;;;;;;;5.20;2.10;;;9.40;99.90;;;;;;5043016;28;20539;-46
2023/11/07 04:20:16;;;;;;;3.42;1.70;;;9.40;99.90;;;;;;5042780;28;20464;-45
2023/11/07 04:22:47;;;;;;;3.72;1.60;;;9.40;99.90;;;;;;5043356;28;20028;-46
2023/11/07 04:25:12;;;;;;;3.17;2.08;;;9.50;99.90;;;;;;5042654;28;20031;-45
2023/11/07 04:27:38;;;;;;;5.10;2.17;;;9.50;99.90;;;;;;5043965;28;20029;-46
2023/11/07 04:30:05;;;;;;;6.40;2.30;;;9.50;99.90;;;;;;5042738;28;20036;-45
2023/11/07 04:32:34;;;;;;;3.58;2.17;;;9.50;99.90;;;;;;5042009;28;20136;-46
2023/11/07 04:35:00;;;;;;;4.88;2.30;;;9.50;99.90;;;;;;5039835;28;20036;-45
2023/11/07 04:37:26;;;;;;;3.80;1.58;;;9.50;99.90;;;;;;5043059;28;20414;-45
2023/11/07 04:39:51;;;;;;;4.38;1.75;;;9.50;99.90;;;;;;5043485;28;20071;-45
2023/11/07 04:42:17;;;;;;;3.65;1.70;;;9.50;99.90;;;;;;5042883;28;20032;-45
2023/11/07 04:44:44;;;;;;;5.18;1.75;;;9.50;99.90;;;;;;5042721;28;20419;-45
2023/11/07 04:47:09;;;;;;;3.28;2.10;;;9.50;99.90;;;;;;5042802;28;20124;-45
2023/11/07 04:49:35;;;;;;;4.38;2.40;;;9.50;99.90;;;;;;5042380;28;20583;-44
2023/11/07 04:52:02;;;;;;;3.90;2.15;;;9.50;99.90;;;;;;5042137;28;20017;-44
2023/11/07 04:54:27;;;;;;;4.65;2.25;;;9.50;99.90;;;;;;5042363;28;20074;-45
2023/11/07 04:56:54;;;;;;;6.20;1.90;;;9.50;99.90;;;;;;5042604;28;20056;-44
2023/11/07 04:59:23;;;;;;;6.18;2.08;;;9.40;99.90;;;;;;5041078;28;20427;-44
2023/11/07 05:01:49;;;;;;;4.93;2.22;;;9.50;99.90;;;;;;5042237;28;20377;-45
2023/11/07 05:04:16;;;;;;;2.83;2.20;;;9.50;99.90;;;;;;5040691;28;20025;-45
2023/11/07 05:06:41;;;;;;;2.78;1.80;;;9.50;99.90;;;;;;5041583;28;20510;-45
2023/11/07 05:09:09;;;;;;;3.97;2.20;;;9.50;99.90;;;;;;5042185;28;20025;-45
2023/11/07 05:11:54;;;;;;;4.10;2.10;;;9.50;99.90;;;;;;5042244;28;20117;-45
2023/11/07 05:14:22;;;;;;;4.68;2.58;;;9.50;99.90;;;;;;5041497;28;20040;-45
2023/11/07 05:16:48;;;;;;;5.50;2.60;;;9.50;99.90;;;;;;5031120;28;20060;-46
2023/11/07 05:19:14;;;;;;;5.45;2.78;;;9.50;99.90;;;;;;5041624;28;20104;-45
2023/11/07 05:21:41;;;;;;;4.97;2.55;;;9.50;99.90;;;;;;5041307;28;20025;-45
2023/11/07 05:24:12;;;;;;;5.38;2.88;;;9.50;99.90;;;;;;5042338;28;20029;-46
2023/11/07 05:26:37;;;;;;;4.32;2.47;;;9.50;99.90;;;;;;5041372;28;20048;-45
2023/11/07 05:29:03;;;;;;;3.95;2.40;;;9.60;99.90;;;;;;5041968;28;20137;-45
2023/11/07 05:31:31;;;;;;;3.83;2.58;;;9.50;99.90;;;;;;5041461;28;20590;-45
2023/11/07 05:34:00;;;;;;;4.95;2.55;;;9.60;99.90;;;;;;5041749;28;20128;-45
2023/11/07 05:36:26;;;;;;;4.35;2.38;;;9.60;99.90;;;;;;5041362;28;20057;-45
2023/11/07 05:38:51;;;;;;;4.35;2.60;;;9.60;99.90;;;;;;5042734;28;20813;-45
2023/11/07 05:41:18;;;;;;;3.75;2.60;;;9.70;99.90;;;;;;5040635;28;20045;-45
2023/11/07 05:43:44;;;;;;;5.13;3.25;;;9.70;99.90;;;;;;5042091;28;20194;-46
2023/11/07 05:46:12;;;;;;;6.95;3.38;;;9.70;99.90;;;;;;5041396;28;20021;-45
2023/11/07 05:48:38;;;;;;;7.88;3.35;;;9.70;99.90;;;;;;5040913;28;20136;-45
2023/11/07 05:51:03;;;;;;;6.40;3.50;;;9.70;99.90;;;;;;5041002;28;20478;-46
2023/11/07 05:53:33;;;;;;;6.05;3.90;;;9.70;99.90;;;;;;5041652;28;20480;-46
2023/11/07 05:56:01;;;;;;;6.05;3.78;;;9.70;99.90;;;;;;5040831;28;20033;-46
2023/11/07 05:58:27;;;;;;;5.88;3.40;;;9.70;99.90;;;;;;5041462;28;20051;-45
2023/11/07 06:00:55;;;;;;;4.80;3.10;;;9.60;99.90;;;;;;5047402;28;20469;-46
2023/11/07 06:03:21;;;;;;;6.15;3.35;;;9.60;99.90;;;;;;5030039;28;20098;-46
2023/11/07 06:05:46;;;;;;;6.05;3.47;;;9.60;99.90;;;;;;5041423;28;21603;-45
2023/11/07 06:08:12;;;;;;;5.18;3.65;;;9.60;99.90;;;;;;5041385;28;20174;-44
2023/11/07 06:10:38;;;;;;;5.75;3.60;;;9.60;99.90;;;;;;5040626;28;20506;-45
2023/11/07 06:13:04;;;;;;;8.07;3.67;;;9.60;99.90;;;;;;5040823;28;20082;-44
2023/11/07 06:15:32;;;;;;;6.40;4.03;;;9.60;99.90;;;;;;5040661;28;20210;-46
2023/11/07 06:17:58;;;;;;;7.63;3.70;;;9.60;99.90;;;;;;5039635;28;20078;-45
2023/11/07 06:20:24;;;;;;;4.43;3.22;;;9.60;99.90;;;;;;5041370;28;20071;-44
2023/11/07 06:22:50;;;;;;;4.45;3.25;;;9.60;99.90;;;;;;5040188;28;20107;-45
2023/11/07 06:25:16;;;;;;;6.95;3.67;;;9.60;99.90;;;;;;5040153;28;20029;-44
2023/11/07 06:27:42;;;;;;;5.15;3.40;;;9.60;99.90;;;;;;5041294;28;20071;-45
2023/11/07 06:30:09;;;;;;;3.88;2.83;;;9.60;99.90;;;;;;5040724;28;20084;-46
2023/11/07 06:32:35;;;;;;;4.68;3.13;;;9.60;99.90;;;;;;5040723;28;20017;-45
2023/11/07 06:35:05;;;;;;;5.13;3.00;;;9.60;99.90;;;;;;5040625;28;20457;-45
2023/11/07 06:37:33;;;;;;;4.57;3.20;;;9.60;99.90;;;;;;5039603;28;20036;-48
2023/11/07 06:40:04;;;;;;;7.28;3.30;;;9.60;99.90;;;;;;5040374;28;20087;-45
2023/11/07 06:42:30;;;;;;;5.57;3.75;;;9.60;99.90;;;;;;5040280;28;20661;-45
2023/11/07 06:44:55;;;;;;;4.45;3.55;;;9.60;99.90;;;;;;5040543;28;20033;-44
2023/11/07 06:47:24;;;;;;;5.72;3.72;;;9.60;99.90;;;;;;5040438;28;20099;-45
2023/11/07 06:49:50;;;;;;;6.20;3.78;;;9.60;99.90;;;;;;5040884;28;20029;-45
2023/11/07 06:52:19;;;;;;;3.20;2.75;;;9.60;99.90;;;;;;5039919;28;20752;-45
2023/11/07 06:54:45;;;;;;;5.30;3.33;;;9.60;99.90;;;;;;5040862;28;20045;-45
2023/11/07 06:57:10;;;;;;;4.78;3.50;;;9.70;99.90;;;;;;5040784;28;20021;-44
2023/11/07 06:59:36;;;;;;;4.95;3.25;;;9.70;99.90;;;;;;5039933;28;20017;-44
2023/11/07 07:02:01;;;;;;;6.47;3.65;;;9.60;99.90;;;;;;5040825;28;20025;-45
2023/11/07 07:04:27;;;;;;;4.82;3.33;;;9.70;99.90;;;;;;5040054;28;20028;-43
2023/11/07 07:06:52;;;;;;;5.25;2.80;;;9.70;99.90;;;;;;5040028;28;20075;-44
2023/11/07 07:09:18;;;;;;;5.05;3.20;;;9.70;99.90;;;;;;5040364;28;20426;-44
2023/11/07 07:11:44;;;;;;;6.22;3.42;;;9.80;99.90;;;;;;5040303;28;20029;-44
2023/11/07 07:14:10;;;;;;;5.38;3.60;;;9.80;99.90;;;;;;5038835;28;20056;-44
2023/11/07 07:16:37;;;;;;;5.65;4.03;;;9.80;99.90;;;;;;5040293;28;20033;-44
2023/11/07 07:19:06;;;;;;;6.32;4.22;;;9.70;99.90;;;;;;5039637;28;20562;-44
2023/11/07 07:21:35;;;;;;;6.13;4.05;;;9.70;99.90;;;;;;5038863;28;20033;-45
2023/11/07 07:24:15;;;;;;;5.18;3.60;;;9.80;99.90;;;;;;5038281;28;20051;-44
2023/11/07 07:26:44;;;;;;;4.97;3.53;;;9.80;99.90;;;;;;5039290;28;20627;-45
2023/11/07 07:29:13;;;;;;;4.95;3.33;;;9.80;99.90;;;;;;5042484;28;20048;-45
2023/11/07 07:31:42;;;;;;;7.68;3.20;;;9.80;99.90;;;;;;5042881;28;20036;-45
2023/11/07 07:34:08;;;;;;;3.97;3.00;;;9.90;99.90;;;;;;5040075;28;20029;-45
2023/11/07 07:36:43;;;;;;;5.63;3.85;;;9.90;99.90;;;;;;5042007;28;20053;-45
2023/11/07 07:39:18;;;;;;;5.72;3.70;;;9.90;99.90;;;;;;5042980;28;20029;-45
2023/11/07 07:41:44;;;;;;;5.72;3.45;;;9.90;99.90;;;;;;5033726;28;20035;-45
2023/11/07 07:44:13;;;;;;;4.82;3.83;;;9.90;99.90;;;;;;5042784;28;20021;-45
2023/11/07 07:46:39;;;;;;;7.35;3.90;;;9.90;99.90;;;;;;5043178;28;20025;-45
2023/11/07 07:49:10;;;;;;;4.25;3.65;;;9.90;99.90;;;;;;5041948;28;20029;-45
2023/11/07 07:51:38;;;;;;;4.97;4.03;;;9.80;99.90;;;;;;5040211;28;20355;-45
2023/11/07 07:54:04;;;;;;;4.75;3.35;;;9.80;99.90;;;;;;5042958;28;20021;-45
2023/11/07 07:56:31;;;;;;;4.07;3.00;;;9.80;99.90;;;;;;5041729;28;20618;-46
2023/11/07 07:58:57;;;;;;;5.65;3.75;;;9.80;99.90;;;;;;5043031;28;20033;-45
2023/11/07 08:01:25;;;;;;;4.97;3.33;;;9.90;99.90;;;;;;5041821;28;20703;-45
2023/11/07 08:04:01;;;;;;;5.88;4.05;;;9.90;99.90;;;;;;5043742;28;20025;-45
2023/11/07 08:06:27;;;;;;;4.97;3.47;;;10.00;99.90;;;;;;5042795;28;20029;-45
2023/11/07 08:08:53;;;;;;;5.85;3.65;;;10.00;99.90;;;;;;5043981;28;20059;-46
2023/11/07 08:11:18;;;;;;;6.40;3.92;;;10.00;99.90;;;;;;5042955;28;20035;-44
2023/11/07 08:13:50;;;;;;;4.55;3.30;;;10.10;99.90;;;;;;5041751;28;20196;-45
2023/11/07 08:16:15;;;;;;;5.38;3.92;;;10.10;99.90;;;;;;5041984;28;20047;-46
2023/11/07 08:18:43;;;;;;;7.57;4.43;;;10.10;99.90;;;;;;5043178;28;20396;-45
2023/11/07 08:21:08;;;;;;;5.97;4.10;;;10.10;99.90;;;;;;5042745;28;20049;-46
2023/11/07 08:23:34;;;;;;;5.80;4.13;;;10.20;99.90;;;;;;5042804;28;20125;-46
2023/11/07 08:25:59;;;;;;;5.68;4.32;;;10.20;99.90;;;;;;5042810;28;20013;-45
2023/11/07 08:28:28;;;;;;;5.63;3.92;;;10.20;99.90;;;;;;5043551;28;20859;-46
2023/11/07 08:30:54;;;;;;;5.93;4.20;;;10.20;99.90;;;;;;5043048;28;20017;-46
2023/11/07 08:33:19;;;;;;;4.18;3.50;;;10.20;99.90;;;;;;5040658;28;20035;-45
2023/11/07 08:35:46;;;;;;;4.53;3.30;;;10.30;99.90;;;;;;5042130;28;20121;-45
2023/11/07 08:38:12;;;;;;;4.18;3.15;;;10.20;99.90;;;;;;5040807;28;20138;-44
2023/11/07 08:40:38;;;;;;;6.93;4.30;;;10.30;99.90;;;;;;5042981;28;20033;-45
2023/11/07 08:43:04;;;;;;;6.93;4.30;;;10.30;99.90;;;;;;5042176;28;20025;-45
2023/11/07 08:45:32;;;;;;;4.53;3.40;;;10.30;99.90;;;;;;5042107;28;20036;-45
2023/11/07 08:47:58;;;;;;;4.88;3.78;;;10.30;99.90;;;;;;5042551;28;20024;-44
2023/11/07 08:50:26;;;;;;;6.07;4.05;;;10.40;99.90;;;;;;5042490;28;20037;-44
2023/11/07 08:52:52;;;;;;;6.80;4.47;;;10.40;99.90;;;;;;5039562;28;20400;-45
2023/11/07 08:55:19;;;;;;;5.32;3.90;;;10.50;99.90;;;;;;5041120;28;20468;-45
2023/11/07 08:57:46;;;;;;;4.93;3.40;;;10.50;99.90;;;;;;5041823;28;20029;-44
2023/11/07 09:00:13;;;;;;;7.45;3.10;;;10.60;99.90;;;;;;5042037;28;20058;-44
2023/11/07 09:02:40;;;;;;;5.13;3.80;;;10.60;99.90;;;;;;5042604;28;20044;-45
2023/11/07 09:05:06;;;;;;;5.00;3.13;;;10.60;99.90;;;;;;5042377;28;20033;-44
2023/11/07 09:07:33;;;;;;;4.75;3.58;;;10.60;99.90;;;;;;5043267;28;20053;-44
2023/11/07 09:09:59;;;;;;;6.53;3.20;;;10.70;99.90;;;;;;5042969;28;20132;-45
2023/11/07 09:12:24;;;;;;;3.88;3.28;;;10.70;99.90;;;;;;5041560;28;20012;-45
2023/11/07 09:14:53;;;;;;;5.10;3.30;;;10.70;99.90;;;;;;5042209;28;20484;-45
2023/11/07 09:17:18;;;;;;;5.97;3.22;;;10.70;99.90;;;;;;5042345;28;20063;-45
2023/11/07 09:19:44;;;;;;;4.05;2.92;;;10.70;99.90;;;;;;5038973;28;20139;-45
2023/11/07 09:22:10;;;;;;;4.80;2.90;;;10.70;99.90;;;;;;5041231;28;20029;-45
2023/11/07 09:24:36;;;;;;;4.38;2.88;;;10.70;99.90;;;;;;5041561;28;20201;-45
2023/11/07 09:27:02;;;;;;;2.90;2.45;;;10.80;99.90;;;;;;5040418;28;20115;-45
2023/11/07 09:29:32;;;;;;;4.25;2.75;;;10.80;99.90;;;;;;5041952;28;20028;-44
2023/11/07 09:31:58;;;;;;;5.43;3.38;;;10.80;99.90;;;;;;5041974;28;20028;-44
2023/11/07 09:34:24;;;;;;;3.50;2.42;;;10.80;99.90;;;;;;5041223;28;20059;-45
2023/11/07 09:36:50;;;;;;;3.17;2.60;;;10.90;99.90;;;;;;5042152;28;20103;-46
2023/11/07 09:39:15;;;;;;;3.58;2.53;;;10.90;99.90;;;;;;5039614;28;20032;-45
2023/11/07 09:41:43;;;;;;;4.18;2.60;;;10.90;99.90;;;;;;5039537;28;20029;-45
2023/11/07 09:44:13;;;;;;;3.30;2.28;;;10.90;99.90;;;;;;5041082;28;20099;-45
2023/11/07 09:46:43;;;;;;;3.78;2.30;;;11.00;99.90;;;;;;5040190;28;20040;-45
2023/11/07 09:49:09;;;;;;;4.68;2.92;;;11.00;99.90;;;;;;5037614;28;20571;-44
2023/11/07 09:51:43;;;;;;;4.22;2.85;;;10.90;99.90;;;;;;5040889;28;20043;-44
2023/11/07 09:54:12;;;;;;;3.55;2.60;;;10.90;99.90;;;;;;5040496;28;20021;-44
2023/11/07 09:56:43;;;;;;;3.58;2.78;;;10.90;99.90;;;;;;5041706;28;20086;-44
2023/11/07 09:59:21;;;;;;;3.05;2.42;;;10.90;99.90;;;;;;5041578;28;20473;-44
2023/11/07 10:01:47;;;;;;;5.20;2.78;;;10.80;99.90;;;;;;5041725;28;20029;-44
2023/11/07 10:04:14;;;;;;;4.22;2.80;;;10.90;99.90;;;;;;5040984;28;20036;-45
2023/11/07 10:06:41;;;;;;;3.25;2.72;;;10.90;99.90;;;;;;5041513;28;20671;-45
2023/11/07 10:09:07;;;;;;;4.00;2.40;;;10.90;99.90;;;;;;5040901;28;20033;-45
2023/11/07 10:11:49;;;;;;;2.35;2.13;;;10.90;99.90;;;;;;5040970;28;20029;-45
2023/11/07 10:14:17;;;;;;;2.75;2.38;;;11.00;99.90;;;;;;5040777;28;20040;-45
2023/11/07 10:16:44;;;;;;;3.40;2.33;;;11.10;99.90;;;;;;5041047;28;20565;-45
2023/11/07 10:19:18;;;;;;;5.30;2.72;;;11.10;99.90;;;;;;5041512;28;20052;-45
2023/11/07 10:21:43;;;;;;;3.47;2.30;;;11.20;99.90;;;;;;5041183;28;20028;-45
2023/11/07 10:24:09;;;;;;;2.80;2.13;;;11.30;99.90;;;;;;5040165;28;20680;-45
2023/11/07 10:26:34;;;;;;;4.70;2.35;;;11.30;99.90;;;;;;5040418;28;20380;-45
2023/11/07 10:29:14;;;;;;;4.65;2.30;;;11.40;99.90;;;;;;5039958;28;20602;-45
2023/11/07 10:31:43;;;;;;;5.05;2.78;;;11.40;99.90;;;;;;5039729;28;20039;-46
2023/11/07 10:34:13;;;;;;;3.00;2.42;;;11.40;99.90;;;;;;5038752;28;20032;-46
2023/11/07 10:36:43;;;;;;;3.25;2.40;;;11.40;99.90;;;;;;5038631;28;20048;-45
2023/11/07 10:39:17;;;;;;;3.38;2.40;;;11.50;99.90;;;;;;5039217;28;20024;-48
2023/11/07 10:41:46;;;;;;;2.55;2.30;;;11.50;99.90;;;;;;5038477;28;20083;-45
2023/11/07 10:44:25;;;;;;;3.30;2.20;;;11.60;99.90;;;;;;5038385;28;20021;-46
2023/11/07 10:46:53;;;;;;;4.68;2.38;;;11.60;99.90;;;;;;5038629;28;20036;-45
2023/11/07 10:49:18;;;;;;;4.00;2.30;;;11.70;99.90;;;;;;5040695;28;20025;-46
2023/11/07 10:51:45;;;;;;;3.15;2.33;;;11.80;99.90;;;;;;5040234;28;20075;-46
2023/11/07 10:54:11;;;;;;;3.88;1.88;;;11.90;99.90;;;;;;5040489;28;20020;-45
2023/11/07 10:56:40;;;;;;;3.25;2.03;;;12.00;99.90;;;;;;5040523;28;20113;-45
2023/11/07 10:59:16;;;;;;;3.33;2.08;;;12.20;99.90;;;;;;5038045;28;20155;-46
2023/11/07 11:01:46;;;;;;;6.65;2.38;;;12.30;99.90;;;;;;5039298;28;20025;-46
2023/11/07 11:04:13;;;;;;;5.68;2.20;;;12.40;99.90;;;;;;5038209;28;20400;-45
2023/11/07 11:06:41;;;;;;;2.38;1.60;;;12.50;99.90;;;;;;5038341;28;20507;-46
2023/11/07 11:09:11;;;;;;;4.50;2.10;;;12.60;99.90;;;;;;5038509;28;20650;-47
2023/11/07 11:11:37;;;;;;;3.25;1.73;;;12.70;99.90;;;;;;5039479;28;20029;-46
2023/11/07 11:14:08;;;;;;;4.15;1.98;;;12.80;99.90;;;;;;5039170;28;20116;-45
2023/11/07 11:16:39;;;;;;;3.33;1.67;;;12.80;99.90;;;;;;5039539;28;20082;-46
2023/11/07 11:19:29;;;;;;;3.08;1.70;;;12.80;99.90;;;;;;5039576;28;20029;-45
2023/11/07 11:22:21;;;;;;;4.15;2.10;;;12.80;99.90;;;;;;5040800;28;20033;-46
2023/11/07 11:25:02;;;;;;;3.05;1.70;;;12.80;99.90;;;;;;5040364;28;20048;-46
2023/11/07 11:27:52;;;;;;;4.68;1.67;;;12.80;99.90;;;;;;5037964;28;20025;-46
2023/11/07 11:30:26;;;;;;;3.78;1.88;;;12.80;99.90;;;;;;5040957;28;20032;-47
2023/11/07 11:33:05;;;;;;;7.28;2.40;;;12.80;99.90;;;;;;5038661;28;20098;-45
2023/11/07 11:35:31;;;;;;;3.63;2.10;;;12.70;99.90;;;;;;5039184;28;20122;-46
2023/11/07 11:38:13;;;;;;;3.53;1.60;;;12.70;99.90;;;;;;5039658;28;20048;-46
2023/11/07 11:40:52;;;;;;;4.35;1.98;;;12.70;99.90;;;;;;5039596;28;20028;-46
2023/11/07 11:43:20;;;;;;;3.85;1.80;;;12.70;99.90;;;;;;5039055;28;20044;-47
2023/11/07 11:45:49;;;;;;;3.22;1.92;;;12.70;99.90;;;;;;5039759;28;20064;-46
2023/11/07 11:48:15;;;;;;;2.97;1.60;;;12.70;99.90;;;;;;5038777;28;20028;-46
2023/11/07 11:50:45;;;;;;;5.25;1.50;;;12.70;99.90;;;;;;5039340;28;20021;-46
2023/11/07 11:53:31;;;;;;;2.67;1.60;;;12.70;99.90;;;;;;5038474;28;20024;-46
2023/11/07 11:55:59;;;;;;;2.92;1.58;;;12.60;99.90;;;;;;5038758;28;20040;-46
2023/11/07 11:58:31;;;;;;;3.75;1.50;;;12.60;99.90;;;;;;5039519;28;20035;-45
2023/11/07 12:01:00;;;;;;;3.10;1.88;;;12.60;99.90;;;;;;5038732;28;20035;-45
2023/11/07 12:03:46;;;;;;;3.58;1.67;;;12.60;99.90;;;;;;5039093;28;20028;-45
2023/11/07 12:06:13;;;;;;;4.88;1.73;;;12.60;99.90;;;;;;5039488;28;20064;-44
2023/11/07 12:08:42;;;;;;;2.20;1.52;;;12.50;99.90;;;;;;5039312;28;20013;-44
2023/11/07 12:11:09;;;;;;;2.13;1.38;;;12.60;99.90;;;;;;5039958;28;20029;-44
2023/11/07 12:13:35;;;;;;;2.53;1.40;;;12.50;99.90;;;;;;5043174;28;20033;-45
2023/11/07 12:16:19;;;;;;;3.35;1.63;;;12.60;99.90;;;;;;5043287;28;20098;-45
2023/11/07 12:18:46;;;;;;;3.40;1.35;;;12.60;99.90;;;;;;5043924;28;20028;-45
2023/11/07 12:21:27;;;;;;;4.63;1.90;;;12.70;99.90;;;;;;5043407;28;20025;-46
2023/11/07 12:23:56;;;;;;;3.60;1.77;;;12.70;99.90;;;;;;5042823;28;20021;-45
2023/11/07 12:26:21;;;;;;;2.10;1.40;;;12.80;99.90;;;;;;5043325;28;20071;-44
2023/11/07 12:28:47;;;;;;;2.28;1.30;;;12.80;99.90;;;;;;5043044;28;20520;-44
2023/11/07 12:31:12;;;;;;;2.35;1.30;;;12.80;99.90;;;;;;5043319;28;20579;-44
2023/11/07 12:33:42;;;;;;;2.45;1.50;;;12.80;99.90;;;;;;5042895;28;20025;-45
2023/11/07 12:36:11;;;;;;;2.10;1.20;;;12.80;99.90;;;;;;5042124;28;20064;-45
2023/11/07 12:38:37;;;;;;;2.05;1.40;;;12.90;99.90;;;;;;5043477;28;20480;-45
2023/11/07 12:41:05;;;;;;;2.70;1.60;;;12.90;99.90;;;;;;5042997;28;20020;-45
2023/11/07 12:43:41;;;;;;;3.28;1.45;;;12.90;99.90;;;;;;5042648;28;20029;-44
2023/11/07 12:46:12;;;;;;;2.28;1.60;;;12.90;99.90;;;;;;5042792;28;20021;-45
2023/11/07 12:48:38;;;;;;;2.38;1.40;;;12.90;99.90;;;;;;5043382;28;20547;-45
2023/11/07 12:51:08;;;;;;;2.33;1.40;;;12.90;99.90;;;;;;5042373;28;20028;-45
2023/11/07 12:53:53;;;;;;;2.47;1.30;;;12.80;99.90;;;;;;5042352;28;20033;-45
2023/11/07 12:56:19;;;;;;;3.78;1.45;;;12.80;99.90;;;;;;5042034;28;20667;-45